Time;durP1;ratioP1;P1;durP2;ratioP2;P2;SDS_P1;SDS_P2;PMS_P1;PMS_P2;Temp;Humidity;BMP_temperature;BMP_pressure;BME280_temperature;BME280_humidity;BME280_pressure;Samples;Min_cycle;Max_cycle;Signal;HPM_P1;HPM_P2
2021/01/26 00:00:08;;;;;;;2.53;0.80;;;;;9.50;100735.00;;;;5029236;28;20230;-79
2021/01/26 00:02:35;;;;;;;3.22;0.68;;;;;9.50;100735.00;;;;5030100;28;20223;-79
2021/01/26 00:05:02;;;;;;;0.93;0.75;;;;;9.60;100740.00;;;;5029374;28;20196;-79
2021/01/26 00:07:29;;;;;;;4.13;1.10;;;;;9.60;100748.00;;;;5030527;28;20223;-79
2021/01/26 00:09:57;;;;;;;5.15;0.68;;;;;9.70;100758.00;;;;5029556;28;20208;-79
2021/01/26 00:12:25;;;;;;;5.07;1.10;;;;;9.70;100762.00;;;;5030471;28;20290;-79
2021/01/26 00:14:51;;;;;;;3.60;0.88;;;;;9.80;100779.00;;;;5028548;28;20220;-79
2021/01/26 00:17:18;;;;;;;2.75;0.85;;;;;9.80;100765.00;;;;5030631;28;20223;-79
2021/01/26 00:19:45;;;;;;;1.90;0.47;;;;;9.90;100768.00;;;;5029478;28;20620;-80
2021/01/26 00:22:11;;;;;;;2.88;0.68;;;;;9.90;100766.00;;;;5030079;28;20586;-79
2021/01/26 00:24:38;;;;;;;3.28;0.40;;;;;9.90;100768.00;;;;5029143;28;20207;-79
2021/01/26 00:27:05;;;;;;;3.33;0.60;;;;;9.90;100766.00;;;;5029279;28;20654;-80
2021/01/26 00:29:33;;;;;;;2.60;0.82;;;;;9.90;100772.00;;;;5030097;28;20239;-81
2021/01/26 00:32:00;;;;;;;1.80;0.32;;;;;9.90;100770.00;;;;5029753;28;20211;-79
2021/01/26 00:34:27;;;;;;;5.13;0.93;;;;;9.90;100779.00;;;;5028740;28;20252;-80
2021/01/26 00:36:53;;;;;;;5.28;0.70;;;;;9.90;100772.00;;;;5030609;28;20219;-80
2021/01/26 00:39:20;;;;;;;4.72;0.65;;;;;9.80;100764.00;;;;5028505;28;20566;-80
2021/01/26 00:41:47;;;;;;;4.05;0.88;;;;;9.80;100776.00;;;;5028349;28;20189;-79
2021/01/26 00:44:14;;;;;;;1.50;0.82;;;;;9.80;100772.00;;;;5029708;28;20606;-79
2021/01/26 00:46:42;;;;;;;5.88;1.10;;;;;9.90;100780.00;;;;5029570;28;20199;-79
2021/01/26 00:49:09;;;;;;;0.95;0.55;;;;;9.90;100787.00;;;;5029727;28;20196;-79
2021/01/26 00:51:35;;;;;;;3.08;0.60;;;;;9.90;100779.00;;;;5029878;28;20204;-79
2021/01/26 00:54:02;;;;;;;4.05;1.10;;;;;9.90;100786.00;;;;5029009;28;20188;-80
2021/01/26 00:56:30;;;;;;;3.03;0.88;;;;;9.90;100790.00;;;;5028802;28;20211;-79
2021/01/26 00:58:57;;;;;;;3.65;0.65;;;;;9.90;100792.00;;;;5029381;28;20750;-79
2021/01/26 01:01:24;;;;;;;2.53;0.52;;;;;9.90;100787.00;;;;5029882;28;20204;-79
2021/01/26 01:03:51;;;;;;;2.97;0.50;;;;;9.80;100792.00;;;;5028748;28;20692;-79
2021/01/26 01:06:18;;;;;;;1.98;0.32;;;;;9.80;100803.00;;;;5029008;28;20208;-78
2021/01/26 01:08:45;;;;;;;3.35;0.60;;;;;9.70;100796.00;;;;5028981;28;20196;-78
2021/01/26 01:11:12;;;;;;;0.47;0.10;;;;;9.70;100795.00;;;;5028869;28;20205;-79
2021/01/26 01:13:39;;;;;;;2.20;0.60;;;;;9.70;100797.00;;;;5028789;28;20564;-78
2021/01/26 01:16:06;;;;;;;0.20;0.10;;;;;9.60;100806.00;;;;5028266;28;20678;-78
2021/01/26 01:18:33;;;;;;;1.00;0.13;;;;;9.60;100807.00;;;;5028841;28;20254;-78
2021/01/26 01:21:00;;;;;;;2.97;0.20;;;;;9.60;100811.00;;;;5027950;28;20600;-78
2021/01/26 01:23:27;;;;;;;1.52;0.17;;;;;9.60;100803.00;;;;5029103;28;20226;-78
2021/01/26 01:25:59;;;;;;;0.98;0.35;;;;;9.50;100819.00;;;;5027559;28;20200;-78
2021/01/26 01:28:26;;;;;;;2.03;0.40;;;;;9.50;100820.00;;;;5028476;28;20213;-78
2021/01/26 01:30:56;;;;;;;2.38;0.40;;;;;9.50;100828.00;;;;5029108;28;20204;-78
2021/01/26 01:33:23;;;;;;;4.32;0.68;;;;;9.50;100833.00;;;;5028220;28;20239;-78
2021/01/26 01:35:50;;;;;;;0.75;0.20;;;;;9.50;100832.00;;;;5026846;28;20200;-78
2021/01/26 01:38:17;;;;;;;3.92;0.28;;;;;9.50;100844.00;;;;5029019;28;20435;-78
2021/01/26 01:40:44;;;;;;;1.23;0.20;;;;;9.60;100844.00;;;;5028711;28;20192;-78
2021/01/26 01:43:11;;;;;;;1.08;0.13;;;;;9.50;100844.00;;;;5027724;28;20223;-78
2021/01/26 01:45:38;;;;;;;0.10;0.00;;;;;9.50;100845.00;;;;5028519;28;20189;-78
2021/01/26 01:48:08;;;;;;;1.60;0.40;;;;;9.50;100846.00;;;;5028166;28;20232;-78
2021/01/26 01:50:39;;;;;;;1.05;0.17;;;;;9.50;100856.00;;;;5028245;28;20258;-79
2021/01/26 01:53:11;;;;;;;0.73;0.20;;;;;9.50;100857.00;;;;5027975;28;20204;-78
2021/01/26 01:55:44;;;;;;;1.67;0.20;;;;;9.40;100856.00;;;;5028375;28;20196;-79
2021/01/26 01:58:16;;;;;;;4.20;1.00;;;;;9.40;100868.00;;;;5028433;28;20192;-78
2021/01/26 02:00:48;;;;;;;4.78;0.38;;;;;9.40;100863.00;;;;5028487;28;20181;-79
2021/01/26 02:03:20;;;;;;;3.25;0.43;;;;;9.30;100865.00;;;;5028167;28;20235;-78
2021/01/26 02:05:50;;;;;;;1.85;0.52;;;;;9.30;100871.00;;;;5027034;28;20196;-78
2021/01/26 02:08:22;;;;;;;4.97;0.57;;;;;9.30;100876.00;;;;5028480;28;20262;-79
2021/01/26 02:10:50;;;;;;;2.58;0.40;;;;;9.30;100879.00;;;;5027583;28;20196;-78
2021/01/26 02:13:17;;;;;;;3.03;0.45;;;;;9.30;100877.00;;;;5027860;28;20572;-78
2021/01/26 02:15:44;;;;;;;3.80;0.45;;;;;9.30;100880.00;;;;5028317;28;20225;-78
2021/01/26 02:18:27;;;;;;;6.53;0.80;;;;;9.20;100885.00;;;;5020314;28;20257;-78
2021/01/26 02:21:45;;;;;;;3.35;0.75;;;;;9.20;100887.00;;;;5027799;28;20200;-78
2021/01/26 02:25:05;;;;;;;1.20;0.20;;;;;9.10;100881.00;;;;5028037;28;20223;-78
2021/01/26 02:28:08;;;;;;;0.70;0.20;;;;;9.10;100887.00;;;;5027523;28;20199;-79
2021/01/26 02:31:01;;;;;;;1.85;0.20;;;;;9.10;100892.00;;;;5027458;28;20788;-78
2021/01/26 02:34:02;;;;;;;1.60;0.40;;;;;9.10;100899.00;;;;4977172;28;20200;-78
2021/01/26 02:37:12;;;;;;;1.33;0.40;;;;;9.00;100907.00;;;;5027103;28;21149;-78
2021/01/26 02:39:51;;;;;;;2.50;0.38;;;;;9.00;100914.00;;;;5032107;28;20199;-78
2021/01/26 02:42:33;;;;;;;3.25;0.50;;;;;9.00;100913.00;;;;5026332;28;20212;-78
2021/01/26 02:45:18;;;;;;;3.22;0.47;;;;;9.00;100922.00;;;;5031560;28;20291;-78
2021/01/26 02:47:55;;;;;;;1.00;0.35;;;;;9.10;100924.00;;;;5030954;28;20215;-78
2021/01/26 02:50:27;;;;;;;1.58;0.55;;;;;9.10;100915.00;;;;5031789;28;20553;-78
2021/01/26 02:53:03;;;;;;;1.63;0.28;;;;;9.10;100924.00;;;;5031140;28;20199;-78
2021/01/26 02:55:35;;;;;;;0.77;0.22;;;;;9.10;100927.00;;;;5031194;28;20199;-78
2021/01/26 02:58:09;;;;;;;0.63;0.30;;;;;9.10;100929.00;;;;5031832;28;20254;-78
2021/01/26 03:00:38;;;;;;;1.88;0.30;;;;;9.10;100928.00;;;;5031141;28;20196;-79
2021/01/26 03:03:10;;;;;;;2.65;0.20;;;;;9.00;100931.00;;;;5031267;28;20803;-78
2021/01/26 03:05:42;;;;;;;0.82;0.20;;;;;9.00;100935.00;;;;5030243;28;20203;-79
2021/01/26 03:08:19;;;;;;;1.15;0.30;;;;;9.00;100937.00;;;;5031317;28;20200;-78
2021/01/26 03:10:53;;;;;;;3.67;0.63;;;;;9.00;100946.00;;;;5020665;28;20196;-79
2021/01/26 03:13:25;;;;;;;2.80;0.40;;;;;9.00;100948.00;;;;5032016;28;20196;-79
2021/01/26 03:15:55;;;;;;;2.55;0.80;;;;;9.00;100940.00;;;;5030354;28;20224;-79
2021/01/26 03:18:29;;;;;;;6.13;0.50;;;;;8.90;100950.00;;;;5030819;28;20211;-79
2021/01/26 03:21:00;;;;;;;5.80;0.82;;;;;8.90;100944.00;;;;5030226;28;20201;-79
2021/01/26 03:23:34;;;;;;;3.42;0.70;;;;;8.90;100947.00;;;;5030319;28;20235;-79
2021/01/26 03:26:03;;;;;;;1.65;0.52;;;;;8.90;100948.00;;;;5029332;28;20197;-79
2021/01/26 03:28:31;;;;;;;3.22;0.52;;;;;8.90;100954.00;;;;5029878;28;20394;-79
2021/01/26 03:31:00;;;;;;;2.22;0.40;;;;;8.90;100943.00;;;;5029913;28;20675;-79
2021/01/26 03:33:31;;;;;;;2.75;0.40;;;;;9.00;100957.00;;;;5030251;28;20204;-79
2021/01/26 03:35:59;;;;;;;1.48;0.30;;;;;9.00;100965.00;;;;5030286;28;20207;-79
2021/01/26 03:38:28;;;;;;;3.88;0.65;;;;;9.00;100952.00;;;;5030065;28;20208;-79
2021/01/26 03:40:57;;;;;;;3.88;0.43;;;;;9.00;100962.00;;;;5029089;28;20577;-78
2021/01/26 03:43:25;;;;;;;4.47;0.40;;;;;9.00;100961.00;;;;5030101;28;20231;-78
2021/01/26 03:45:58;;;;;;;3.85;0.90;;;;;9.00;100970.00;;;;5030003;28;20209;-78
2021/01/26 03:48:35;;;;;;;3.22;0.47;;;;;9.00;100970.00;;;;5010037;28;20208;-78
2021/01/26 03:51:09;;;;;;;4.88;0.90;;;;;9.00;100981.00;;;;5020844;28;20203;-78
2021/01/26 03:54:04;;;;;;;3.28;0.80;;;;;8.90;100980.00;;;;5029782;28;20254;-78
2021/01/26 03:56:45;;;;;;;3.03;0.55;;;;;8.90;100987.00;;;;5024762;28;20651;-79
2021/01/26 03:59:23;;;;;;;1.67;0.30;;;;;8.90;100990.00;;;;5030192;28;20235;-79
2021/01/26 04:01:58;;;;;;;2.08;0.43;;;;;9.00;100988.00;;;;5030586;28;20192;-79
2021/01/26 04:04:33;;;;;;;3.70;0.45;;;;;9.00;100995.00;;;;5030560;28;20245;-79
2021/01/26 04:07:02;;;;;;;2.50;0.85;;;;;9.00;100992.00;;;;5030481;28;20200;-78
2021/01/26 04:09:35;;;;;;;3.05;0.32;;;;;9.00;100999.00;;;;5030037;28;20196;-78
2021/01/26 04:12:06;;;;;;;5.40;0.95;;;;;9.00;101002.00;;;;5029180;28;20207;-79
2021/01/26 04:14:37;;;;;;;3.55;0.28;;;;;9.00;101013.00;;;;5030002;28;20203;-79
2021/01/26 04:17:10;;;;;;;0.60;0.20;;;;;9.00;101014.00;;;;5030072;28;20620;-79
2021/01/26 04:19:41;;;;;;;3.03;0.55;;;;;9.00;101017.00;;;;5029927;28;20232;-79
2021/01/26 04:22:09;;;;;;;1.38;0.25;;;;;9.10;101015.00;;;;5030293;28;20196;-79
2021/01/26 04:24:37;;;;;;;1.25;0.22;;;;;9.10;101009.00;;;;5030101;28;20236;-79
2021/01/26 04:27:08;;;;;;;2.65;0.30;;;;;9.10;101015.00;;;;5027225;28;20215;-78
2021/01/26 04:29:36;;;;;;;3.03;0.40;;;;;9.10;101016.00;;;;5029329;28;20189;-79
2021/01/26 04:32:03;;;;;;;1.30;0.40;;;;;9.10;101026.00;;;;5010831;28;20239;-79
2021/01/26 04:34:30;;;;;;;2.60;0.65;;;;;9.10;101020.00;;;;5023305;28;20224;-78
2021/01/26 04:36:56;;;;;;;4.78;0.52;;;;;9.10;101025.00;;;;5029181;28;20192;-79
2021/01/26 04:39:23;;;;;;;2.95;0.65;;;;;9.10;101024.00;;;;5029130;28;20571;-79
2021/01/26 04:41:54;;;;;;;2.38;0.50;;;;;9.10;101040.00;;;;5029646;28;20197;-79
2021/01/26 04:44:36;;;;;;;4.05;0.85;;;;;9.10;101036.00;;;;5029495;28;20235;-79
2021/01/26 04:47:16;;;;;;;2.70;0.45;;;;;9.00;101033.00;;;;5021740;28;20192;-79
2021/01/26 04:50:08;;;;;;;3.72;0.38;;;;;9.00;101047.00;;;;5030213;28;20266;-78
2021/01/26 04:52:54;;;;;;;3.10;0.38;;;;;9.00;101047.00;;;;5030288;28;20208;-78
2021/01/26 04:55:35;;;;;;;3.05;0.43;;;;;9.00;101044.00;;;;5029313;28;20200;-78
2021/01/26 04:58:43;;;;;;;2.42;0.30;;;;;9.00;101054.00;;;;5028539;28;20688;-78
2021/01/26 05:01:21;;;;;;;1.20;0.32;;;;;9.00;101053.00;;;;5013219;28;20196;-79
2021/01/26 05:04:01;;;;;;;3.92;0.50;;;;;9.00;101063.00;;;;5029398;28;20566;-78
2021/01/26 05:06:39;;;;;;;4.20;0.43;;;;;9.00;101069.00;;;;5028443;28;20210;-79
2021/01/26 05:09:14;;;;;;;8.07;0.95;;;;;9.10;101071.00;;;;5029294;28;20208;-78
2021/01/26 05:11:44;;;;;;;3.10;0.75;;;;;9.20;101068.00;;;;5028979;28;20192;-79
2021/01/26 05:14:16;;;;;;;2.90;0.60;;;;;9.20;101075.00;;;;5029003;28;20200;-78
2021/01/26 05:16:56;;;;;;;3.42;0.45;;;;;9.20;101075.00;;;;5027764;28;20211;-79
2021/01/26 05:19:31;;;;;;;5.85;0.38;;;;;9.20;101078.00;;;;5010007;28;20258;-79
2021/01/26 05:22:06;;;;;;;2.05;0.60;;;;;9.30;101083.00;;;;5028666;28;20200;-79
2021/01/26 05:24:38;;;;;;;2.33;0.30;;;;;9.30;101087.00;;;;5027749;28;20227;-79
2021/01/26 05:27:06;;;;;;;4.55;0.90;;;;;9.40;101091.00;;;;5027504;28;20203;-79
2021/01/26 05:29:34;;;;;;;1.42;0.40;;;;;9.40;101103.00;;;;5028516;28;20200;-79
2021/01/26 05:32:05;;;;;;;3.42;0.35;;;;;9.50;101104.00;;;;5028039;28;20243;-79
2021/01/26 05:34:34;;;;;;;1.05;0.20;;;;;9.50;101109.00;;;;5024784;28;20736;-78
2021/01/26 05:37:04;;;;;;;3.67;0.65;;;;;9.50;101123.00;;;;5028296;28;20569;-78
2021/01/26 05:39:35;;;;;;;3.97;0.68;;;;;9.60;101126.00;;;;5028717;28;20563;-79
2021/01/26 05:42:02;;;;;;;1.88;0.30;;;;;9.70;101121.00;;;;5025693;28;20738;-78
2021/01/26 05:44:30;;;;;;;2.90;0.52;;;;;9.70;101124.00;;;;5028253;28;20224;-79
2021/01/26 05:46:57;;;;;;;3.88;0.47;;;;;9.70;101118.00;;;;5027444;28;20682;-78
2021/01/26 05:49:42;;;;;;;1.40;0.28;;;;;9.60;101122.00;;;;5028097;28;20246;-78
2021/01/26 05:52:11;;;;;;;4.30;0.98;;;;;9.70;101130.00;;;;5027765;28;20192;-79
2021/01/26 05:54:46;;;;;;;4.70;0.50;;;;;9.60;101130.00;;;;5027725;28;20197;-78
2021/01/26 05:57:22;;;;;;;2.05;0.35;;;;;9.70;101135.00;;;;5027359;28;20290;-79
2021/01/26 05:59:50;;;;;;;2.50;0.43;;;;;9.70;101132.00;;;;5026661;28;20557;-80
2021/01/26 06:02:22;;;;;;;2.67;0.22;;;;;9.70;101140.00;;;;5027652;28;20204;-80
2021/01/26 06:04:50;;;;;;;1.92;0.40;;;;;9.80;101153.00;;;;5026860;28;20220;-79
2021/01/26 06:07:20;;;;;;;2.08;0.65;;;;;9.80;101160.00;;;;5027670;28;20711;-79
2021/01/26 06:09:47;;;;;;;2.40;0.45;;;;;9.80;101154.00;;;;5026971;28;20200;-79
2021/01/26 06:12:20;;;;;;;1.77;0.20;;;;;9.80;101162.00;;;;5022698;28;20204;-79
2021/01/26 06:15:01;;;;;;;5.97;1.10;;;;;9.80;101166.00;;;;5025463;28;20219;-79
2021/01/26 06:17:29;;;;;;;2.75;0.38;;;;;9.70;101165.00;;;;5008791;28;20216;-79
2021/01/26 06:20:09;;;;;;;0.40;0.10;;;;;9.60;101173.00;;;;5016235;28;20192;-80
2021/01/26 06:22:36;;;;;;;2.15;0.30;;;;;9.70;101167.00;;;;5027099;28;20573;-80
2021/01/26 06:25:07;;;;;;;1.63;0.30;;;;;9.70;101181.00;;;;5027413;28;20189;-80
2021/01/26 06:27:50;;;;;;;1.17;0.28;;;;;9.60;101184.00;;;;5028000;28;20613;-79
2021/01/26 06:30:26;;;;;;;1.48;0.30;;;;;9.60;101182.00;;;;5025973;28;20594;-80
2021/01/26 06:33:37;;;;;;;3.53;0.10;;;;;9.50;101185.00;;;;5028072;28;20191;-80
2021/01/26 06:36:24;;;;;;;1.85;0.20;;;;;9.50;101187.00;;;;5008122;28;20192;-79
2021/01/26 06:39:22;;;;;;;3.72;0.20;;;;;9.50;101193.00;;;;5031904;28;20188;-79
2021/01/26 06:42:27;;;;;;;0.98;0.10;;;;;9.50;101198.00;;;;5029697;28;21008;-80
2021/01/26 06:45:02;;;;;;;0.55;0.10;;;;;9.60;101204.00;;;;5015952;28;20588;-79
2021/01/26 06:47:48;;;;;;;0.43;0.10;;;;;9.50;101199.00;;;;5028401;28;20200;-80
2021/01/26 06:50:26;;;;;;;1.15;0.17;;;;;9.60;101209.00;;;;5027483;28;20203;-79
2021/01/26 06:53:09;;;;;;;1.98;0.20;;;;;9.60;101220.00;;;;5027808;28;20262;-79
2021/01/26 06:56:05;;;;;;;0.45;0.17;;;;;9.50;101225.00;;;;5028179;28;20219;-80
2021/01/26 06:58:58;;;;;;;3.88;0.40;;;;;9.60;101227.00;;;;5017160;28;20193;-80
2021/01/26 07:01:51;;;;;;;2.05;0.28;;;;;9.60;101237.00;;;;5028126;28;20543;-78
2021/01/26 07:04:35;;;;;;;1.60;0.20;;;;;9.60;101240.00;;;;5027859;28;20278;-78
2021/01/26 07:07:28;;;;;;;1.73;0.25;;;;;9.60;101252.00;;;;5007983;28;20208;-78
2021/01/26 07:10:19;;;;;;;1.55;0.40;;;;;9.70;101253.00;;;;5007814;28;20655;-78
2021/01/26 07:13:00;;;;;;;1.27;0.35;;;;;9.80;101258.00;;;;5009336;28;20201;-78
2021/01/26 07:15:38;;;;;;;1.25;0.20;;;;;9.80;101265.00;;;;5027423;28;20208;-78
2021/01/26 07:18:32;;;;;;;0.73;0.10;;;;;9.80;101264.00;;;;5027244;28;20586;-78
2021/01/26 07:21:15;;;;;;;3.08;0.38;;;;;9.80;101276.00;;;;5001358;28;20201;-79
2021/01/26 07:23:59;;;;;;;1.15;0.30;;;;;9.80;101279.00;;;;5029787;28;20224;-79
2021/01/26 07:27:02;;;;;;;2.15;0.30;;;;;9.80;101285.00;;;;5031629;28;20200;-78
2021/01/26 07:29:49;;;;;;;2.85;0.35;;;;;9.80;101287.00;;;;5016383;28;20543;-78
2021/01/26 07:32:22;;;;;;;0.20;0.10;;;;;9.90;101294.00;;;;5031189;28;20219;-78
2021/01/26 07:34:59;;;;;;;2.13;0.55;;;;;9.90;101296.00;;;;5030595;28;20249;-79
2021/01/26 07:37:32;;;;;;;0.65;0.15;;;;;9.90;101303.00;;;;5031529;28;20287;-78
2021/01/26 07:40:03;;;;;;;1.73;0.40;;;;;9.90;101310.00;;;;5030927;28;20200;-79
2021/01/26 07:42:37;;;;;;;1.42;0.35;;;;;9.90;101312.00;;;;5031430;28;20200;-79
2021/01/26 07:45:12;;;;;;;4.85;0.40;;;;;10.00;101313.00;;;;5029905;28;20231;-79
2021/01/26 07:47:43;;;;;;;4.40;0.50;;;;;10.00;101314.00;;;;5031299;28;20707;-79
2021/01/26 07:50:19;;;;;;;1.20;0.43;;;;;10.00;101318.00;;;;5030749;28;20209;-78
2021/01/26 07:52:48;;;;;;;1.40;0.40;;;;;10.00;101326.00;;;;5031335;28;20258;-80
2021/01/26 07:55:22;;;;;;;2.45;0.50;;;;;10.00;101331.00;;;;5030598;28;20196;-79
2021/01/26 07:57:57;;;;;;;1.58;0.20;;;;;10.10;101333.00;;;;5030255;28;20206;-79
2021/01/26 08:00:27;;;;;;;1.27;0.28;;;;;10.10;101335.00;;;;5029526;28;20204;-79
2021/01/26 08:02:57;;;;;;;0.60;0.30;;;;;10.10;101331.00;;;;5030586;28;20254;-79
2021/01/26 08:05:42;;;;;;;0.55;0.32;;;;;10.10;101359.00;;;;5030045;28;20204;-80
2021/01/26 08:08:16;;;;;;;2.63;0.50;;;;;10.20;101356.00;;;;5030596;28;20204;-79
2021/01/26 08:10:43;;;;;;;0.98;0.20;;;;;10.30;101355.00;;;;5030852;28;20219;-79
2021/01/26 08:13:11;;;;;;;3.20;0.32;;;;;10.30;101351.00;;;;5030114;28;20219;-79
2021/01/26 08:15:40;;;;;;;0.93;0.28;;;;;10.40;101357.00;;;;5030009;28;20231;-80
2021/01/26 08:18:22;;;;;;;1.15;0.40;;;;;10.40;101364.00;;;;5028002;28;20212;-79
2021/01/26 08:20:48;;;;;;;0.77;0.40;;;;;10.50;101356.00;;;;5029631;28;20219;-80
2021/01/26 08:23:24;;;;;;;1.75;0.43;;;;;10.40;101363.00;;;;5030081;28;20293;-79
2021/01/26 08:25:55;;;;;;;4.05;0.30;;;;;10.50;101359.00;;;;5030090;28;20721;-79
2021/01/26 08:28:44;;;;;;;2.05;0.20;;;;;10.40;101362.00;;;;5030414;28;20749;-80
2021/01/26 08:31:34;;;;;;;0.80;0.20;;;;;10.50;101372.00;;;;5029919;28;20200;-79
2021/01/26 08:34:36;;;;;;;0.88;0.50;;;;;10.50;101380.00;;;;5023118;28;20228;-79
2021/01/26 08:37:24;;;;;;;1.73;0.75;;;;;10.50;101385.00;;;;5030043;28;20593;-80
2021/01/26 08:39:52;;;;;;;4.95;1.63;;;;;10.60;101396.00;;;;5029783;28;20656;-80
2021/01/26 08:43:00;;;;;;;2.95;0.65;;;;;10.50;101399.00;;;;5030015;28;20204;-79
2021/01/26 08:45:55;;;;;;;2.72;0.47;;;;;10.50;101398.00;;;;5030444;28;20208;-80
2021/01/26 08:48:25;;;;;;;1.90;0.77;;;;;10.60;101411.00;;;;5030085;28;20352;-79
2021/01/26 08:51:12;;;;;;;3.15;0.68;;;;;10.60;101413.00;;;;5029372;28;20208;-79
2021/01/26 08:53:40;;;;;;;1.80;0.25;;;;;10.70;101416.00;;;;5030213;28;20200;-79
2021/01/26 08:56:33;;;;;;;0.90;0.15;;;;;10.70;101422.00;;;;5029251;28;20587;-79
2021/01/26 08:59:01;;;;;;;0.40;0.10;;;;;10.70;101424.00;;;;5029347;28;20619;-79
2021/01/26 09:01:40;;;;;;;1.00;0.55;;;;;10.70;101427.00;;;;5029853;28;20200;-80
2021/01/26 09:04:53;;;;;;;0.55;0.10;;;;;10.70;101432.00;;;;5028817;28;20238;-79
2021/01/26 09:07:45;;;;;;;1.15;0.43;;;;;10.60;101439.00;;;;5029642;28;20203;-79
2021/01/26 09:10:29;;;;;;;1.33;0.22;;;;;10.70;101437.00;;;;5029397;28;20266;-79
2021/01/26 09:13:07;;;;;;;2.22;0.38;;;;;10.70;101449.00;;;;5029019;28;20208;-80
2021/01/26 09:15:36;;;;;;;1.13;0.20;;;;;10.80;101453.00;;;;5029136;28;20682;-80
2021/01/26 09:18:04;;;;;;;0.17;0.10;;;;;10.80;101461.00;;;;5029257;28;20193;-79
2021/01/26 09:20:33;;;;;;;3.63;0.50;;;;;10.80;101462.00;;;;5029388;28;20226;-80
2021/01/26 09:23:02;;;;;;;1.20;0.20;;;;;10.90;101467.00;;;;5029299;28;20216;-79
2021/01/26 09:25:33;;;;;;;1.42;0.43;;;;;10.90;101474.00;;;;5029513;28;20197;-80
2021/01/26 09:28:02;;;;;;;0.85;0.22;;;;;10.90;101475.00;;;;5028415;28;20658;-79
2021/01/26 09:30:30;;;;;;;0.20;0.15;;;;;11.00;101474.00;;;;5029540;28;20207;-80
2021/01/26 09:33:17;;;;;;;2.38;0.28;;;;;10.90;101480.00;;;;5028750;28;20204;-80
2021/01/26 09:35:46;;;;;;;1.75;0.85;;;;;11.00;101487.00;;;;5029100;28;20286;-80
2021/01/26 09:38:17;;;;;;;1.45;0.40;;;;;11.00;101494.00;;;;5028883;28;20204;-79
2021/01/26 09:40:45;;;;;;;2.05;0.30;;;;;11.10;101488.00;;;;5029510;28;20219;-79
2021/01/26 09:43:20;;;;;;;3.50;0.95;;;;;11.10;101505.00;;;;5028027;28;20718;-80
2021/01/26 09:45:58;;;;;;;2.67;0.57;;;;;11.10;101501.00;;;;5029079;28;20191;-80
2021/01/26 09:48:33;;;;;;;2.22;0.43;;;;;11.20;101509.00;;;;5029041;28;20200;-79
2021/01/26 09:51:13;;;;;;;4.05;0.47;;;;;11.20;101514.00;;;;5028530;28;20254;-79
2021/01/26 09:53:41;;;;;;;2.20;0.38;;;;;11.40;101514.00;;;;5028768;28;20234;-80
2021/01/26 09:56:09;;;;;;;1.25;0.30;;;;;11.40;101517.00;;;;5028379;28;20632;-80
2021/01/26 09:58:37;;;;;;;2.80;0.47;;;;;11.50;101519.00;;;;5028974;28;20244;-80
2021/01/26 10:01:05;;;;;;;1.02;0.30;;;;;11.60;101529.00;;;;5028012;28;20216;-79
2021/01/26 10:03:33;;;;;;;2.83;0.65;;;;;11.60;101524.00;;;;5028531;28;20339;-79
2021/01/26 10:06:00;;;;;;;1.20;0.32;;;;;11.70;101526.00;;;;5027862;28;20226;-79
2021/01/26 10:08:30;;;;;;;1.80;0.50;;;;;11.70;101531.00;;;;5028916;28;20207;-80
2021/01/26 10:11:08;;;;;;;0.63;0.30;;;;;11.70;101531.00;;;;5028219;28;20208;-80
2021/01/26 10:13:36;;;;;;;1.08;0.45;;;;;11.70;101538.00;;;;5028616;28;20669;-80
2021/01/26 10:16:38;;;;;;;3.08;0.40;;;;;11.60;101544.00;;;;5027344;28;20215;-79
2021/01/26 10:19:13;;;;;;;2.38;0.57;;;;;11.70;101537.00;;;;5021338;28;20832;-79
2021/01/26 10:21:41;;;;;;;2.03;0.50;;;;;11.80;101533.00;;;;5028032;28;20226;-80
2021/01/26 10:24:12;;;;;;;1.02;0.40;;;;;11.80;101523.00;;;;5028015;28;20224;-79
2021/01/26 10:26:42;;;;;;;1.35;0.50;;;;;11.90;101538.00;;;;5028080;28;20208;-79
2021/01/26 10:29:32;;;;;;;2.92;0.32;;;;;11.80;101546.00;;;;5027539;28;20286;-80
2021/01/26 10:31:59;;;;;;;4.65;0.60;;;;;11.90;101535.00;;;;5027609;28;20227;-80
2021/01/26 10:34:42;;;;;;;3.10;0.60;;;;;11.90;101529.00;;;;5027848;28;20611;-79
2021/01/26 10:37:30;;;;;;;0.90;0.20;;;;;12.00;101538.00;;;;5027677;28;20208;-80
2021/01/26 10:40:11;;;;;;;1.25;0.50;;;;;12.10;101530.00;;;;5027853;28;20192;-79
2021/01/26 10:42:40;;;;;;;4.20;0.60;;;;;12.30;101537.00;;;;5028228;28;20206;-81
2021/01/26 10:45:08;;;;;;;0.90;0.32;;;;;12.30;101526.00;;;;5027219;28;20235;-81
2021/01/26 10:47:37;;;;;;;2.47;0.85;;;;;12.40;101539.00;;;;5024930;28;20209;-80
2021/01/26 10:50:10;;;;;;;0.22;0.10;;;;;12.40;101542.00;;;;5027875;28;20215;-80
2021/01/26 10:52:40;;;;;;;1.65;0.35;;;;;12.50;101535.00;;;;5028158;28;20204;-81
2021/01/26 10:55:10;;;;;;;2.42;0.30;;;;;12.50;101538.00;;;;5027170;28;20232;-82
2021/01/26 10:57:36;;;;;;;1.85;0.30;;;;;12.60;101544.00;;;;5017500;28;20662;-81
2021/01/26 11:00:06;;;;;;;2.00;0.73;;;;;12.60;101545.00;;;;5031498;28;20200;-80
2021/01/26 11:02:33;;;;;;;0.90;0.35;;;;;12.60;101548.00;;;;5030456;28;20205;-80
2021/01/26 11:05:00;;;;;;;1.92;0.40;;;;;12.60;101555.00;;;;5030715;28;20224;-80
2021/01/26 11:07:28;;;;;;;2.92;0.20;;;;;12.60;101556.00;;;;5030634;28;20201;-80
2021/01/26 11:09:54;;;;;;;1.63;0.25;;;;;12.60;101551.00;;;;5030753;28;20207;-80
2021/01/26 11:12:21;;;;;;;3.67;0.90;;;;;12.60;101552.00;;;;5031687;28;20200;-80
2021/01/26 11:14:48;;;;;;;1.55;0.38;;;;;12.60;101553.00;;;;5031248;28;20395;-81
2021/01/26 11:17:15;;;;;;;2.15;0.30;;;;;12.60;101556.00;;;;5030434;28;20565;-80
2021/01/26 11:19:44;;;;;;;2.17;0.50;;;;;12.60;101557.00;;;;5031473;28;20192;-80
2021/01/26 11:22:11;;;;;;;2.83;1.10;;;;;12.60;101552.00;;;;5030839;28;20208;-80
2021/01/26 11:24:38;;;;;;;5.50;0.65;;;;;12.60;101556.00;;;;5031321;28;20239;-80
2021/01/26 11:27:05;;;;;;;2.92;0.73;;;;;12.60;101554.00;;;;5030446;28;20314;-80
2021/01/26 11:29:32;;;;;;;3.33;0.60;;;;;12.60;101553.00;;;;5030877;28;20204;-80
2021/01/26 11:31:59;;;;;;;2.08;0.60;;;;;12.50;101551.00;;;;5030211;28;20230;-80
2021/01/26 11:34:25;;;;;;;2.80;0.50;;;;;12.50;101553.00;;;;5031297;28;20229;-80
2021/01/26 11:36:52;;;;;;;3.05;0.55;;;;;12.50;101555.00;;;;5030710;28;20200;-80
2021/01/26 11:39:19;;;;;;;1.05;0.40;;;;;12.50;101549.00;;;;5030578;28;20200;-80
2021/01/26 11:41:47;;;;;;;3.38;0.45;;;;;12.40;101549.00;;;;5025133;28;20192;-80
2021/01/26 11:44:13;;;;;;;1.58;0.30;;;;;12.50;101548.00;;;;5029624;28;20220;-80
2021/01/26 11:46:40;;;;;;;1.42;0.32;;;;;12.50;101540.00;;;;5029249;28;20192;-81
2021/01/26 11:49:07;;;;;;;3.70;0.63;;;;;12.50;101539.00;;;;5033221;28;20191;-80
2021/01/26 11:51:34;;;;;;;0.90;0.40;;;;;12.50;101536.00;;;;5034326;28;20208;-81
2021/01/26 11:54:01;;;;;;;1.02;0.20;;;;;12.50;101549.00;;;;5040602;28;20672;-82
2021/01/26 11:56:28;;;;;;;0.57;0.20;;;;;12.50;101545.00;;;;5037500;28;20212;-80
2021/01/26 11:58:55;;;;;;;1.10;0.30;;;;;12.60;101549.00;;;;5030198;28;20204;-81
2021/01/26 12:01:22;;;;;;;3.05;0.90;;;;;12.60;101542.00;;;;5031100;28;20189;-81
2021/01/26 12:03:49;;;;;;;0.77;0.17;;;;;12.60;101535.00;;;;5029737;28;20698;-81
2021/01/26 12:06:15;;;;;;;1.10;0.17;;;;;12.60;101538.00;;;;5028769;28;20255;-81
2021/01/26 12:08:43;;;;;;;0.40;0.20;;;;;12.70;101532.00;;;;5030363;28;20216;-80
2021/01/26 12:11:10;;;;;;;0.20;0.10;;;;;12.70;101537.00;;;;5028415;28;20231;-80
2021/01/26 12:13:36;;;;;;;1.75;0.30;;;;;12.70;101540.00;;;;5030636;28;20214;-81
2021/01/26 12:16:05;;;;;;;0.75;0.45;;;;;12.80;101546.00;;;;5030267;28;20216;-81
2021/01/26 12:18:32;;;;;;;1.08;0.32;;;;;12.80;101541.00;;;;5029643;28;20196;-81
2021/01/26 12:20:59;;;;;;;1.98;0.17;;;;;12.80;101534.00;;;;5028737;28;20654;-80
2021/01/26 12:23:26;;;;;;;2.40;0.10;;;;;12.90;101542.00;;;;5029108;28;20200;-81
2021/01/26 12:25:57;;;;;;;0.80;0.20;;;;;12.90;101540.00;;;;5029036;28;20208;-81
2021/01/26 12:28:24;;;;;;;0.40;0.10;;;;;13.00;101544.00;;;;5028978;28;20567;-81
2021/01/26 12:30:52;;;;;;;4.63;0.20;;;;;13.00;101546.00;;;;5028597;28;20278;-81
2021/01/26 12:33:20;;;;;;;1.85;0.25;;;;;13.10;101539.00;;;;5028121;28;20220;-80
2021/01/26 12:35:47;;;;;;;0.50;0.15;;;;;13.10;101548.00;;;;5018850;28;20757;-80
2021/01/26 12:38:14;;;;;;;0.20;0.10;;;;;13.10;101549.00;;;;5028346;28;20200;-80
2021/01/26 12:40:42;;;;;;;0.63;0.20;;;;;13.00;101554.00;;;;5029408;28;20214;-81
2021/01/26 12:43:09;;;;;;;0.70;0.20;;;;;13.10;101558.00;;;;5028800;28;20203;-80
2021/01/26 12:45:37;;;;;;;1.00;0.40;;;;;13.10;101552.00;;;;5020846;28;20227;-80